Time;durP1;ratioP1;P1;durP2;ratioP2;P2;SDS_P1;SDS_P2;PMS_P1;PMS_P2;Temp;Humidity;BMP_temperature;BMP_pressure;BME280_temperature;BME280_humidity;BME280_pressure;Samples;Min_cycle;Max_cycle;Signal;HPM_P1;HPM_P2
2022/02/28 00:01:35;;;;;;;;;;;4.50;99.90;;;;;;5073650;28;19974;-47
2022/02/28 00:04:01;;;;;;;;;;;4.40;99.90;;;;;;5073900;28;19966;-50
2022/02/28 00:06:28;;;;;;;;;;;4.40;99.90;;;;;;5072729;28;19920;-49
2022/02/28 00:08:55;;;;;;;;;;;4.50;99.90;;;;;;5073611;28;19924;-53
2022/02/28 00:11:23;;;;;;;;;;;4.50;99.90;;;;;;5073569;28;19974;-50
2022/02/28 00:13:50;;;;;;;;;;;4.60;99.90;;;;;;5073239;28;19974;-53
2022/02/28 00:16:16;;;;;;;;;;;4.60;99.90;;;;;;5073263;28;19974;-53
2022/02/28 00:18:43;;;;;;;;;;;4.60;99.90;;;;;;5073183;28;19924;-48
2022/02/28 00:21:09;;;;;;;;;;;4.60;99.90;;;;;;5073452;28;19921;-50
2022/02/28 00:23:36;;;;;;;;;;;4.60;99.90;;;;;;5073333;28;19920;-51
2022/02/28 00:26:04;;;;;;;;;;;4.60;99.90;;;;;;5072918;28;19928;-51
2022/02/28 00:28:32;;;;;;;;;;;4.50;99.90;;;;;;5073447;28;19920;-54
2022/02/28 00:30:59;;;;;;;;;;;4.50;99.90;;;;;;5073308;28;19924;-52
2022/02/28 00:33:25;;;;;;;;;;;4.50;99.90;;;;;;5072752;28;19924;-52
2022/02/28 00:35:52;;;;;;;;;;;4.50;99.90;;;;;;5072810;28;19974;-49
2022/02/28 00:38:18;;;;;;;;;;;4.50;99.90;;;;;;5073039;28;19943;-53
2022/02/28 00:40:45;;;;;;;;;;;4.50;99.90;;;;;;5072437;28;19928;-51
2022/02/28 00:43:11;;;;;;;;;;;4.50;99.90;;;;;;5072936;28;19966;-50
2022/02/28 00:45:39;;;;;;;;;;;4.40;99.90;;;;;;5072740;28;19981;-48
2022/02/28 00:48:06;;;;;;;;;;;4.50;99.90;;;;;;5072767;28;19989;-52
2022/02/28 00:50:33;;;;;;;;;;;4.50;99.90;;;;;;5073105;28;19920;-50
2022/02/28 00:52:59;;;;;;;;;;;4.40;99.90;;;;;;5072654;28;19921;-53
2022/02/28 00:55:26;;;;;;;;;;;4.40;99.90;;;;;;5072443;28;20359;-51
2022/02/28 00:57:52;;;;;;;;;;;4.50;99.90;;;;;;5072447;28;19938;-51
2022/02/28 01:00:19;;;;;;;;;;;4.50;99.90;;;;;;5072521;28;20428;-51
2022/02/28 01:02:48;;;;;;;;;;;4.50;99.90;;;;;;5072494;28;20383;-54
2022/02/28 01:05:15;;;;;;;;;;;4.50;99.90;;;;;;5072245;28;19924;-50
2022/02/28 01:07:42;;;;;;;;;;;4.50;99.90;;;;;;5072341;28;20450;-52
2022/02/28 01:10:10;;;;;;;;;;;4.50;99.90;;;;;;5072423;28;19943;-57
2022/02/28 01:12:36;;;;;;;;;;;4.50;99.90;;;;;;5072921;28;19965;-56
2022/02/28 01:15:03;;;;;;;;;;;4.40;99.90;;;;;;5073334;28;20004;-56
2022/02/28 01:17:30;;;;;;;;;;;4.40;99.90;;;;;;5072150;28;20382;-57
2022/02/28 01:19:58;;;;;;;;;;;4.30;99.90;;;;;;5072327;28;19981;-56
2022/02/28 01:22:25;;;;;;;;;;;4.30;99.90;;;;;;5072905;28;19931;-57
2022/02/28 01:24:51;;;;;;;;;;;4.30;99.90;;;;;;5072563;28;19924;-57
2022/02/28 01:27:18;;;;;;;;;;;4.30;99.90;;;;;;5072261;28;19920;-56
2022/02/28 01:29:45;;;;;;;;;;;4.20;99.90;;;;;;5072391;28;19970;-57
2022/02/28 01:32:12;;;;;;;;;;;4.20;99.90;;;;;;5072263;28;19974;-58
2022/02/28 01:34:38;;;;;;;;;;;4.20;99.90;;;;;;5072332;28;20344;-56
2022/02/28 01:37:06;;;;;;;;;;;4.30;99.90;;;;;;5072469;28;19925;-59
2022/02/28 01:39:33;;;;;;;;;;;4.20;99.90;;;;;;5072476;28;19924;-56
2022/02/28 01:41:59;;;;;;;;;;;4.20;99.90;;;;;;5072386;28;19927;-56
2022/02/28 01:44:26;;;;;;;;;;;4.20;99.90;;;;;;5071576;28;19972;-57
2022/02/28 01:46:53;;;;;;;;;;;4.10;99.90;;;;;;5072105;28;19921;-57
2022/02/28 01:49:19;;;;;;;;;;;4.00;99.90;;;;;;5071680;28;20440;-58
2022/02/28 01:51:46;;;;;;;;;;;4.00;99.90;;;;;;5072212;28;19924;-56
2022/02/28 01:54:14;;;;;;;;;;;4.00;99.90;;;;;;5071935;28;19920;-55
2022/02/28 01:56:40;;;;;;;;;;;3.90;99.90;;;;;;5071997;28;19966;-57
2022/02/28 01:59:07;;;;;;;;;;;3.90;99.90;;;;;;5071593;28;19924;-57
2022/02/28 02:01:34;;;;;;;;;;;3.80;99.90;;;;;;5071619;28;20374;-57
2022/02/28 02:04:00;;;;;;;;;;;3.80;99.90;;;;;;5071802;28;19920;-56
2022/02/28 02:06:27;;;;;;;;;;;3.90;99.90;;;;;;5071747;28;19928;-55
2022/02/28 02:08:54;;;;;;;;;;;3.90;99.90;;;;;;5071612;28;19966;-54
2022/02/28 02:11:21;;;;;;;;;;;3.90;99.90;;;;;;5071675;28;19967;-57
2022/02/28 02:13:49;;;;;;;;;;;3.80;99.90;;;;;;5071959;28;19978;-57
2022/02/28 02:16:16;;;;;;;;;;;3.80;99.90;;;;;;5071255;28;19989;-57
2022/02/28 02:18:42;;;;;;;;;;;3.80;99.90;;;;;;5072121;28;19974;-55
2022/02/28 02:21:12;;;;;;;;;;;3.80;99.90;;;;;;5071982;28;20367;-56
2022/02/28 02:23:38;;;;;;;;;;;3.70;99.90;;;;;;5071561;28;19927;-57
2022/02/28 02:26:05;;;;;;;;;;;3.70;99.90;;;;;;5071510;28;20279;-55
2022/02/28 02:28:32;;;;;;;;;;;3.70;99.90;;;;;;5071631;28;19921;-54
2022/02/28 02:31:00;;;;;;;;;;;3.70;99.90;;;;;;5075276;28;19979;-56
2022/02/28 02:33:26;;;;;;;;;;;3.70;99.90;;;;;;5075341;28;19920;-55
2022/02/28 02:35:54;;;;;;;;;;;3.70;99.90;;;;;;5075397;28;19920;-53
2022/02/28 02:38:22;;;;;;;;;;;3.70;99.90;;;;;;5075673;28;19921;-57
2022/02/28 02:40:50;;;;;;;;;;;3.60;99.90;;;;;;5075440;28;19927;-57
2022/02/28 02:43:17;;;;;;;;;;;3.60;99.90;;;;;;5074941;28;19924;-56
2022/02/28 02:45:43;;;;;;;;;;;3.50;99.90;;;;;;5075022;28;19920;-55
2022/02/28 02:48:14;;;;;;;;;;;3.50;99.90;;;;;;5075306;28;19920;-56
2022/02/28 02:50:40;;;;;;;;;;;3.40;99.90;;;;;;5075035;28;19920;-55
2022/02/28 02:53:07;;;;;;;;;;;3.30;99.90;;;;;;5074940;28;19974;-55
2022/02/28 02:55:35;;;;;;;;;;;3.30;99.90;;;;;;5074845;28;19966;-53
2022/02/28 02:58:02;;;;;;;;;;;3.30;99.90;;;;;;5074909;28;20345;-57
2022/02/28 03:00:28;;;;;;;;;;;3.20;99.90;;;;;;5075558;28;19928;-55
2022/02/28 03:02:55;;;;;;;;;;;3.20;99.90;;;;;;5075110;28;19974;-53
2022/02/28 03:05:21;;;;;;;;;;;3.20;99.90;;;;;;5074818;28;19974;-54
2022/02/28 03:07:48;;;;;;;;;;;3.20;99.90;;;;;;5074658;28;20483;-56
2022/02/28 03:10:15;;;;;;;;;;;3.20;99.90;;;;;;5074429;28;19920;-55
2022/02/28 03:12:42;;;;;;;;;;;3.10;99.90;;;;;;5074469;28;19920;-57
2022/02/28 03:15:09;;;;;;;;;;;3.10;99.90;;;;;;5074887;28;19974;-57
2022/02/28 03:17:36;;;;;;;;;;;3.00;99.90;;;;;;5074174;28;20394;-56
2022/02/28 03:20:03;;;;;;;;;;;3.00;99.90;;;;;;5074726;28;19947;-56
2022/02/28 03:22:30;;;;;;;;;;;2.90;99.90;;;;;;5074208;28;19924;-57
2022/02/28 03:24:56;;;;;;;;;;;2.80;99.90;;;;;;5074192;28;20379;-57
2022/02/28 03:27:23;;;;;;;;;;;2.70;99.90;;;;;;5074387;28;20367;-57
2022/02/28 03:29:50;;;;;;;;;;;2.70;99.90;;;;;;5074448;28;19921;-52
2022/02/28 03:32:17;;;;;;;;;;;2.50;99.90;;;;;;5074526;28;19927;-57
2022/02/28 03:34:43;;;;;;;;;;;2.50;99.90;;;;;;5074076;28;19970;-58
2022/02/28 03:37:10;;;;;;;;;;;2.50;99.90;;;;;;5074075;28;19920;-57
2022/02/28 03:39:36;;;;;;;;;;;2.40;99.90;;;;;;5073946;28;19928;-58
2022/02/28 03:42:03;;;;;;;;;;;2.40;99.90;;;;;;5074863;28;19920;-55
2022/02/28 03:44:30;;;;;;;;;;;2.30;99.90;;;;;;5074459;28;19920;-56
2022/02/28 03:46:58;;;;;;;;;;;2.30;99.90;;;;;;5074094;28;20336;-55
2022/02/28 03:49:24;;;;;;;;;;;2.30;99.90;;;;;;5074089;28;20267;-55
2022/02/28 03:51:51;;;;;;;;;;;2.20;99.90;;;;;;5073826;28;19920;-57
2022/02/28 03:54:17;;;;;;;;;;;2.10;99.90;;;;;;5073338;28;19965;-53
2022/02/28 03:56:44;;;;;;;;;;;2.00;99.90;;;;;;5073631;28;19921;-56
2022/02/28 03:59:11;;;;;;;;;;;2.00;99.90;;;;;;5074132;28;19924;-56
2022/02/28 04:01:38;;;;;;;;;;;2.10;99.90;;;;;;5073937;28;19926;-57
2022/02/28 04:04:07;;;;;;;;;;;2.00;99.90;;;;;;5073495;28;20375;-57
2022/02/28 04:06:35;;;;;;;;;;;1.90;99.90;;;;;;5073534;28;19974;-56
2022/02/28 04:09:04;;;;;;;;;;;1.80;99.90;;;;;;5073482;28;19927;-57
2022/02/28 04:11:31;;;;;;;;;;;1.70;99.90;;;;;;5073712;28;20331;-57
2022/02/28 04:13:57;;;;;;;;;;;1.60;99.90;;;;;;5073536;28;19920;-56
2022/02/28 04:16:24;;;;;;;;;;;1.50;99.90;;;;;;5073588;28;20395;-57
2022/02/28 04:18:50;;;;;;;;;;;1.50;99.90;;;;;;5073666;28;19966;-55
2022/02/28 04:21:18;;;;;;;;;;;1.40;99.90;;;;;;5073558;28;19920;-57
2022/02/28 04:23:46;;;;;;;;;;;1.40;99.90;;;;;;5073619;28;19982;-57
2022/02/28 04:26:12;;;;;;;;;;;1.30;99.90;;;;;;5072968;28;20355;-54
2022/02/28 04:28:39;;;;;;;;;;;1.30;99.90;;;;;;5073376;28;19920;-56
2022/02/28 04:31:05;;;;;;;;;;;1.20;99.90;;;;;;5073538;28;19972;-55
2022/02/28 04:33:32;;;;;;;;;;;1.20;99.90;;;;;;5072874;28;19920;-53
2022/02/28 04:35:58;;;;;;;;;;;1.10;99.90;;;;;;5072574;28;19920;-57
2022/02/28 04:38:26;;;;;;;;;;;1.10;99.90;;;;;;5073167;28;19924;-56
2022/02/28 04:40:52;;;;;;;;;;;1.00;99.90;;;;;;5073034;28;19973;-54
2022/02/28 04:43:19;;;;;;;;;;;0.80;99.90;;;;;;5073150;28;19947;-56
2022/02/28 04:45:45;;;;;;;;;;;0.70;99.90;;;;;;5073093;28;19920;-54
2022/02/28 04:48:12;;;;;;;;;;;0.90;99.90;;;;;;5072687;28;20397;-56
2022/02/28 04:50:38;;;;;;;;;;;0.90;99.90;;;;;;5073244;28;19924;-57
2022/02/28 04:53:05;;;;;;;;;;;0.90;99.90;;;;;;5073083;28;20229;-55
2022/02/28 04:55:34;;;;;;;;;;;0.80;99.90;;;;;;5073435;28;19920;-56
2022/02/28 04:58:01;;;;;;;;;;;0.60;99.90;;;;;;5073343;28;19920;-56
2022/02/28 05:00:27;;;;;;;;;;;0.60;99.90;;;;;;5073089;28;19925;-57
2022/02/28 05:02:54;;;;;;;;;;;0.50;99.90;;;;;;5072519;28;19966;-56
2022/02/28 05:05:21;;;;;;;;;;;0.60;99.90;;;;;;5072641;28;19924;-57
2022/02/28 05:07:48;;;;;;;;;;;0.60;99.90;;;;;;5072317;28;19924;-57
2022/02/28 05:10:14;;;;;;;;;;;0.60;99.90;;;;;;5072333;28;19974;-57
2022/02/28 05:12:42;;;;;;;;;;;0.60;99.90;;;;;;5072349;28;20448;-57
2022/02/28 05:15:09;;;;;;;;;;;0.60;99.90;;;;;;5072190;28;19974;-57
2022/02/28 05:17:36;;;;;;;;;;;0.60;99.90;;;;;;5072014;28;20347;-55
2022/02/28 05:20:02;;;;;;;;;;;0.60;99.90;;;;;;5072356;28;19924;-55
2022/02/28 05:22:29;;;;;;;;;;;0.60;99.90;;;;;;5072269;28;20041;-56
2022/02/28 05:24:55;;;;;;;;;;;0.60;99.90;;;;;;5072196;28;20345;-56
2022/02/28 05:27:22;;;;;;;;;;;0.50;99.90;;;;;;5071791;28;20049;-52
2022/02/28 05:29:50;;;;;;;;;;;0.50;99.90;;;;;;5072178;28;19920;-55
2022/02/28 05:32:17;;;;;;;;;;;0.50;99.90;;;;;;5072277;28;20325;-53
2022/02/28 05:34:43;;;;;;;;;;;0.50;99.90;;;;;;5071999;28;19920;-54
2022/02/28 05:37:10;;;;;;;;;;;0.60;99.90;;;;;;5071795;28;19920;-54
2022/02/28 05:39:36;;;;;;;;;;;0.50;99.90;;;;;;5072139;28;19920;-55
2022/02/28 05:42:03;;;;;;;;;;;0.60;99.90;;;;;;5070722;28;19920;-54
2022/02/28 05:44:29;;;;;;;;;;;0.60;99.90;;;;;;5062049;28;19951;-53
2022/02/28 05:46:57;;;;;;;;;;;0.70;99.90;;;;;;5051568;28;19925;-53
2022/02/28 05:49:24;;;;;;;;;;;0.70;99.90;;;;;;5051654;28;19982;-55
2022/02/28 05:51:51;;;;;;;;;;;0.70;99.90;;;;;;5051902;28;19974;-55
2022/02/28 05:54:17;;;;;;;;;;;0.80;99.90;;;;;;5051495;28;19987;-57
2022/02/28 05:56:44;;;;;;;;;;;0.80;99.90;;;;;;5051755;28;19958;-52
2022/02/28 05:59:10;;;;;;;;;;;0.90;99.90;;;;;;5051548;28;19924;-56
2022/02/28 06:01:37;;;;;;;;;;;0.90;99.90;;;;;;5051389;28;19951;-55
2022/02/28 06:04:05;;;;;;;;;;;0.90;99.90;;;;;;5054614;28;19920;-52
2022/02/28 06:06:32;;;;;;;;;;;0.90;99.90;;;;;;5055267;28;19921;-52
2022/02/28 06:09:00;;;;;;;;;;;0.80;99.90;;;;;;5055834;28;20570;-55
2022/02/28 06:11:28;;;;;;;;;;;0.80;99.90;;;;;;5055351;28;20306;-54
2022/02/28 06:13:55;;;;;;;;;;;0.90;99.90;;;;;;5055514;28;19920;-55
2022/02/28 06:16:21;;;;;;;;;;;0.80;99.90;;;;;;5057725;28;20402;-60
2022/02/28 06:18:48;;;;;;;;;;;0.80;99.90;;;;;;5074848;28;19921;-60
2022/02/28 06:21:16;;;;;;;;;;;0.80;99.90;;;;;;5075519;28;19920;-61
2022/02/28 06:23:43;;;;;;;;;;;0.70;99.90;;;;;;5074883;28;19946;-60
2022/02/28 06:26:10;;;;;;;;;;;0.60;99.90;;;;;;5074603;28;20015;-60
2022/02/28 06:28:36;;;;;;;;;;;0.60;99.90;;;;;;5074624;28;19985;-59
2022/02/28 06:31:03;;;;;;;;;;;0.50;99.90;;;;;;5064507;28;20326;-62
2022/02/28 06:33:30;;;;;;;;;;;0.50;99.90;;;;;;5054786;28;20470;-59
2022/02/28 06:35:56;;;;;;;;;;;0.50;99.90;;;;;;5054553;28;19928;-62
2022/02/28 06:38:26;;;;;;;;;;;0.50;99.90;;;;;;5054608;28;20375;-60
2022/02/28 06:40:52;;;;;;;;;;;0.50;99.90;;;;;;5055024;28;19964;-60
2022/02/28 06:43:20;;;;;;;;;;;0.50;99.90;;;;;;5055993;28;19921;-61
2022/02/28 06:45:47;;;;;;;;;;;0.40;99.90;;;;;;5055389;28;19925;-61
2022/02/28 06:48:14;;;;;;;;;;;0.40;99.90;;;;;;5055051;28;19925;-61
2022/02/28 06:50:40;;;;;;;;;;;0.40;99.90;;;;;;5054839;28;19928;-60
2022/02/28 06:53:07;;;;;;;;;;;0.30;99.90;;;;;;5054419;28;19925;-60
2022/02/28 06:55:35;;;;;;;;;;;0.40;99.90;;;;;;5054122;28;20404;-62
2022/02/28 06:58:01;;;;;;;;;;;0.50;99.90;;;;;;5054159;28;19968;-61
2022/02/28 07:00:28;;;;;;;;;;;0.50;99.90;;;;;;5054717;28;19928;-61
2022/02/28 07:02:55;;;;;;;;;;;0.50;99.90;;;;;;5062992;28;19927;-60
2022/02/28 07:05:21;;;;;;;;;;;0.60;99.90;;;;;;5074136;28;19928;-61
2022/02/28 07:07:48;;;;;;;;;;;0.60;99.90;;;;;;5073883;28;19935;-64
2022/02/28 07:10:15;;;;;;;;;;;0.70;99.90;;;;;;5073744;28;19924;-63
2022/02/28 07:12:43;;;;;;;;;;;0.70;99.90;;;;;;5074180;28;20435;-62
2022/02/28 07:15:10;;;;;;;;;;;0.80;99.90;;;;;;5073768;28;19920;-63
2022/02/28 07:17:36;;;;;;;;;;;0.80;99.90;;;;;;5073588;28;19974;-61
2022/02/28 07:20:03;;;;;;;;;;;0.90;99.90;;;;;;5074597;28;19920;-62
2022/02/28 07:22:30;;;;;;;;;;;1.00;99.90;;;;;;5073981;28;19920;-61
2022/02/28 07:24:56;;;;;;;;;;;1.10;99.90;;;;;;5074219;28;19928;-61
2022/02/28 07:27:23;;;;;;;;;;;1.30;99.90;;;;;;5074103;28;19928;-65
2022/02/28 07:29:51;;;;;;;;;;;1.40;99.90;;;;;;5073990;28;19966;-63
2022/02/28 07:32:17;;;;;;;;;;;1.50;99.90;;;;;;5074134;28;19924;-63
2022/02/28 07:34:44;;;;;;;;;;;1.70;99.90;;;;;;5073372;28;19966;-56
2022/02/28 07:37:11;;;;;;;;;;;1.80;99.90;;;;;;5073335;28;19920;-57
2022/02/28 07:39:37;;;;;;;;;;;1.90;99.90;;;;;;5074006;28;19966;-65
2022/02/28 07:42:04;;;;;;;;;;;2.00;99.90;;;;;;5073839;28;19921;-64
2022/02/28 07:44:31;;;;;;;;;;;2.20;99.90;;;;;;5059016;28;19928;-60
2022/02/28 07:46:59;;;;;;;;;;;2.40;99.90;;;;;;5052777;28;19991;-59
2022/02/28 07:49:32;;;;;;;;;;;2.60;99.90;;;;;;5053785;28;19927;-60
2022/02/28 07:51:59;;;;;;;;;;;2.70;99.90;;;;;;5053390;28;20351;-60
2022/02/28 07:54:25;;;;;;;;;;;2.90;99.90;;;;;;5060355;28;19967;-62
2022/02/28 07:56:52;;;;;;;;;;;3.00;99.90;;;;;;5072722;28;20034;-61
2022/02/28 07:59:19;;;;;;;;;;;3.20;99.90;;;;;;5073954;28;19920;-61
2022/02/28 08:01:45;;;;;;;;;;;3.50;99.90;;;;;;5073647;28;19999;-60
2022/02/28 08:04:13;;;;;;;;;;;3.70;99.90;;;;;;5073133;28;19920;-61
2022/02/28 08:06:39;;;;;;;;;;;3.80;99.90;;;;;;5073040;28;20337;-61
2022/02/28 08:09:06;;;;;;;;;;;3.90;99.90;;;;;;5073359;28;19921;-61
2022/02/28 08:11:33;;;;;;;;;;;4.00;99.90;;;;;;5073311;28;19982;-61
2022/02/28 08:13:59;;;;;;;;;;;4.20;99.90;;;;;;5073250;28;20333;-60
2022/02/28 08:16:26;;;;;;;;;;;4.40;99.90;;;;;;5072482;28;19920;-60
2022/02/28 08:18:52;;;;;;;;;;;4.50;99.90;;;;;;5072444;28;19966;-60
2022/02/28 08:21:20;;;;;;;;;;;4.60;99.90;;;;;;5073066;28;19921;-60
2022/02/28 08:23:47;;;;;;;;;;;4.70;99.90;;;;;;5073212;28;19924;-59
2022/02/28 08:26:14;;;;;;;;;;;4.90;99.90;;;;;;5073465;28;19920;-62
2022/02/28 08:28:40;;;;;;;;;;;4.90;99.90;;;;;;5072811;28;19966;-59
2022/02/28 08:31:07;;;;;;;;;;;5.10;99.90;;;;;;5073368;28;19920;-61
2022/02/28 08:33:33;;;;;;;;;;;5.20;99.90;;;;;;5073350;28;19927;-59
2022/02/28 08:36:00;;;;;;;;;;;5.30;99.90;;;;;;5073739;28;19921;-59
2022/02/28 08:38:28;;;;;;;;;;;5.50;99.90;;;;;;5073218;28;19925;-60
2022/02/28 08:40:55;;;;;;;;;;;5.60;99.90;;;;;;5073404;28;19920;-62
2022/02/28 08:43:21;;;;;;;;;;;5.70;99.90;;;;;;5074737;28;19920;-60
2022/02/28 08:45:48;;;;;;;;;;;5.80;99.90;;;;;;5072192;28;20461;-61
2022/02/28 08:48:14;;;;;;;;;;;5.90;99.90;;;;;;5072503;28;19946;-60
2022/02/28 08:50:41;;;;;;;;;;;6.00;99.90;;;;;;5072155;28;19924;-63
2022/02/28 08:53:08;;;;;;;;;;;6.10;99.90;;;;;;5072635;28;20271;-64
2022/02/28 08:55:36;;;;;;;;;;;6.20;99.90;;;;;;5072108;28;19920;-62
2022/02/28 08:58:02;;;;;;;;;;;6.40;99.90;;;;;;5072437;28;19920;-62
2022/02/28 09:00:29;;;;;;;;;;;6.50;99.90;;;;;;5072253;28;19928;-63
2022/02/28 09:02:56;;;;;;;;;;;6.60;99.90;;;;;;5072253;28;19927;-63
2022/02/28 09:05:22;;;;;;;;;;;6.70;99.90;;;;;;5072658;28;20042;-63
2022/02/28 09:07:49;;;;;;;;;;;6.80;99.90;;;;;;5071278;28;19928;-64
2022/02/28 09:10:18;;;;;;;;;;;6.90;99.90;;;;;;5072074;28;19927;-63
2022/02/28 09:12:46;;;;;;;;;;;7.00;99.90;;;;;;5072110;28;19920;-65
2022/02/28 09:15:12;;;;;;;;;;;7.10;99.90;;;;;;5071577;28;19921;-65
2022/02/28 09:17:39;;;;;;;;;;;7.10;99.90;;;;;;5071474;28;19954;-64
2022/02/28 09:20:07;;;;;;;;;;;7.20;99.90;;;;;;5071819;28;19974;-65
2022/02/28 09:22:53;;;;;;;;;;;7.30;99.90;;;;;;5072004;28;19926;-64
2022/02/28 09:25:20;;;;;;;;;;;7.50;99.90;;;;;;5071602;28;19924;-62
2022/02/28 09:27:48;;;;;;;;;;;7.40;99.90;;;;;;5071235;28;20023;-63
2022/02/28 09:30:15;;;;;;;;;;;7.40;99.90;;;;;;5072162;28;19920;-62
2022/02/28 09:32:41;;;;;;;;;;;7.50;99.90;;;;;;5071717;28;19924;-63
2022/02/28 09:35:08;;;;;;;;;;;7.60;99.90;;;;;;5062208;28;19982;-62
2022/02/28 09:37:35;;;;;;;;;;;7.60;99.90;;;;;;5051688;28;19921;-62
2022/02/28 09:40:02;;;;;;;;;;;7.80;99.90;;;;;;5051527;28;19974;-63
2022/02/28 09:42:29;;;;;;;;;;;7.80;99.90;;;;;;5051641;28;20028;-64
2022/02/28 09:44:58;;;;;;;;;;;8.00;99.90;;;;;;5051275;28;20276;-63
2022/02/28 09:47:25;;;;;;;;;;;8.00;99.90;;;;;;5051305;28;19975;-63
2022/02/28 09:49:52;;;;;;;;;;;7.90;99.90;;;;;;5050976;28;19928;-63
2022/02/28 09:52:19;;;;;;;;;;;8.00;99.90;;;;;;5051762;28;20015;-63
2022/02/28 09:54:45;;;;;;;;;;;8.00;99.90;;;;;;5051467;28;19924;-63
2022/02/28 09:57:14;;;;;;;;;;;8.20;99.90;;;;;;5050437;28;19982;-63
2022/02/28 09:59:40;;;;;;;;;;;8.20;99.90;;;;;;5051640;28;19921;-64
2022/02/28 10:02:08;;;;;;;;;;;8.30;99.90;;;;;;5051365;28;19920;-64
2022/02/28 10:04:35;;;;;;;;;;;8.30;99.90;;;;;;5051787;28;19986;-64
2022/02/28 10:07:16;;;;;;;;;;;8.40;99.90;;;;;;5050538;28;20444;-63
2022/02/28 10:09:42;;;;;;;;;;;8.40;99.90;;;;;;5051428;28;19921;-64
2022/02/28 10:12:09;;;;;;;;;;;8.50;99.90;;;;;;5051413;28;19927;-63
2022/02/28 10:14:36;;;;;;;;;;;8.60;99.90;;;;;;5051191;28;19921;-65
2022/02/28 10:17:03;;;;;;;;;;;8.70;99.90;;;;;;5050912;28;19966;-63
2022/02/28 10:19:32;;;;;;;;;;;8.70;99.90;;;;;;5051170;28;20061;-66
2022/02/28 10:22:00;;;;;;;;;;;8.70;99.90;;;;;;5051544;28;19925;-65
2022/02/28 10:24:29;;;;;;;;;;;8.80;99.90;;;;;;5051468;28;20394;-64
2022/02/28 10:26:57;;;;;;;;;;;8.80;99.90;;;;;;5050713;28;19967;-66
2022/02/28 10:29:24;;;;;;;;;;;8.90;99.90;;;;;;5051700;28;19921;-60
2022/02/28 10:31:51;;;;;;;;;;;9.00;99.90;;;;;;5051563;28;19920;-62
2022/02/28 10:34:18;;;;;;;;;;;9.00;99.90;;;;;;5050910;28;19920;-62
2022/02/28 10:36:47;;;;;;;;;;;9.20;99.90;;;;;;5050814;28;19920;-62
2022/02/28 10:39:15;;;;;;;;;;;9.30;99.90;;;;;;5051267;28;20287;-59
2022/02/28 10:41:43;;;;;;;;;;;9.50;99.90;;;;;;5051255;28;20011;-63
2022/02/28 10:44:11;;;;;;;;;;;9.40;99.90;;;;;;5051135;28;19986;-63
2022/02/28 10:46:42;;;;;;;;;;;9.50;99.90;;;;;;5049860;28;20398;-63
2022/02/28 10:49:15;;;;;;;;;;;9.40;99.90;;;;;;5050559;28;20380;-64
2022/02/28 10:51:50;;;;;;;;;;;9.50;99.90;;;;;;5066927;28;19920;-64
2022/02/28 10:54:20;;;;;;;;;;;9.40;99.90;;;;;;5074739;28;19920;-64
2022/02/28 10:56:47;;;;;;;;;;;9.40;99.90;;;;;;5074066;28;19924;-63
2022/02/28 10:59:14;;;;;;;;;;;9.50;99.90;;;;;;5074233;28;20378;-64
2022/02/28 11:01:41;;;;;;;;;;;9.60;99.90;;;;;;5074716;28;19920;-67
2022/02/28 11:04:08;;;;;;;;;;;9.60;99.90;;;;;;5054646;28;19975;-64
2022/02/28 11:06:36;;;;;;;;;;;9.70;99.90;;;;;;5063268;28;20022;-62
2022/02/28 11:09:04;;;;;;;;;;;9.90;99.90;;;;;;5074432;28;19921;-61
2022/02/28 11:11:31;;;;;;;;;;;10.00;99.90;;;;;;5074508;28;20313;-61
2022/02/28 11:13:57;;;;;;;;;;;9.90;99.90;;;;;;5074095;28;19920;-61
2022/02/28 11:16:26;;;;;;;;;;;9.90;99.90;;;;;;5074097;28;20294;-59
2022/02/28 11:18:53;;;;;;;;;;;10.10;99.90;;;;;;5073580;28;20357;-61
2022/02/28 11:21:19;;;;;;;;;;;10.10;99.90;;;;;;5074577;28;19966;-61
2022/02/28 11:23:46;;;;;;;;;;;10.10;99.90;;;;;;5073709;28;19928;-60
2022/02/28 11:26:15;;;;;;;;;;;10.20;99.90;;;;;;5074007;28;19920;-61
2022/02/28 11:28:42;;;;;;;;;;;10.30;99.90;;;;;;5074509;28;19920;-62
2022/02/28 11:31:12;;;;;;;;;;;10.20;99.90;;;;;;5077130;28;19920;-61
2022/02/28 11:33:49;;;;;;;;;;;10.30;99.90;;;;;;5074785;28;19920;-60
2022/02/28 11:36:16;;;;;;;;;;;10.30;99.90;;;;;;5073485;28;19966;-61
2022/02/28 11:38:43;;;;;;;;;;;10.30;99.90;;;;;;5073592;28;20352;-62
2022/02/28 11:41:10;;;;;;;;;;;10.20;99.90;;;;;;5073703;28;19928;-61
2022/02/28 11:43:39;;;;;;;;;;;10.20;99.90;;;;;;5073341;28;19990;-62
2022/02/28 11:46:13;;;;;;;;;;;10.30;99.90;;;;;;5073511;28;19920;-61
2022/02/28 11:48:41;;;;;;;;;;;10.40;99.90;;;;;;5073115;28;19924;-62
2022/02/28 11:51:09;;;;;;;;;;;10.50;99.90;;;;;;5073542;28;19968;-60
2022/02/28 11:53:41;;;;;;;;;;;10.50;99.90;;;;;;5073188;28;20437;-65
2022/02/28 11:56:30;;;;;;;;;;;10.50;99.90;;;;;;5073186;28;20007;-65
2022/02/28 11:58:59;;;;;;;;;;;10.60;99.90;;;;;;5048012;28;19920;-65
2022/02/28 12:01:27;;;;;;;;;;;10.50;99.90;;;;;;5057015;28;19927;-63
2022/02/28 12:04:10;;;;;;;;;;;10.60;99.90;;;;;;5053588;28;19921;-61
2022/02/28 12:06:50;;;;;;;;;;;10.70;99.90;;;;;;5052910;28;19927;-62
2022/02/28 12:09:35;;;;;;;;;;;10.70;99.90;;;;;;5052986;28;19921;-61
2022/02/28 12:12:12;;;;;;;;;;;10.80;99.90;;;;;;5053762;28;19937;-62
2022/02/28 12:15:12;;;;;;;;;;;10.90;99.90;;;;;;5053887;28;20015;-62
2022/02/28 12:17:56;;;;;;;;;;;11.00;99.90;;;;;;4991502;28;19922;-63
2022/02/28 12:20:23;;;;;;;;;;;11.10;99.90;;;;;;4991390;28;19922;-62
2022/02/28 12:23:09;;;;;;;;;;;11.10;99.90;;;;;;5025241;28;19925;-65
2022/02/28 12:25:37;;;;;;;;;;;11.10;99.90;;;;;;5052634;28;19944;-62
2022/02/28 12:28:14;;;;;;;;;;;10.90;99.90;;;;;;5053397;28;19966;-62
2022/02/28 12:30:43;;;;;;;;;;;10.90;99.90;;;;;;5053644;28;20299;-61
2022/02/28 12:33:12;;;;;;;;;;;11.00;99.90;;;;;;5053640;28;19924;-61
2022/02/28 12:35:39;;;;;;;;;;;11.10;99.90;;;;;;5051867;28;20430;-61
2022/02/28 12:38:05;;;;;;;;;;;11.00;99.90;;;;;;5052598;28;19975;-64
2022/02/28 12:40:32;;;;;;;;;;;11.00;99.90;;;;;;5052635;28;19924;-64
2022/02/28 12:42:58;;;;;;;;;;;11.10;99.90;;;;;;5052521;28;19921;-63
2022/02/28 12:45:25;;;;;;;;;;;11.10;99.90;;;;;;5052537;28;19924;-63
2022/02/28 12:47:52;;;;;;;;;;;11.00;99.90;;;;;;5051920;28;19991;-64
2022/02/28 12:50:21;;;;;;;;;;;11.10;99.90;;;;;;5052369;28;19920;-63
2022/02/28 12:52:50;;;;;;;;;;;11.10;99.90;;;;;;5052441;28;19921;-63
2022/02/28 12:55:17;;;;;;;;;;;11.00;99.90;;;;;;5052516;28;19921;-64
2022/02/28 12:57:44;;;;;;;;;;;10.90;99.90;;;;;;5052295;28;20473;-63
2022/02/28 13:00:11;;;;;;;;;;;11.00;99.90;;;;;;5051885;28;19924;-63
2022/02/28 13:02:37;;;;;;;;;;;11.10;99.90;;;;;;5052549;28;19920;-64
2022/02/28 13:05:04;;;;;;;;;;;11.20;99.90;;;;;;5052130;28;19982;-64
2022/02/28 13:07:33;;;;;;;;;;;11.30;99.90;;;;;;5051988;28;19921;-64
2022/02/28 13:09:59;;;;;;;;;;;11.40;99.90;;;;;;5052819;28;19964;-63
2022/02/28 13:12:27;;;;;;;;;;;11.60;99.90;;;;;;5052344;28;19928;-62
2022/02/28 13:14:55;;;;;;;;;;;11.50;99.90;;;;;;5053658;28;19926;-62
2022/02/28 13:17:23;;;;;;;;;;;11.60;99.90;;;;;;5051592;28;19920;-62
2022/02/28 13:19:49;;;;;;;;;;;11.50;99.90;;;;;;5052984;28;19921;-63
2022/02/28 13:22:20;;;;;;;;;;;11.60;99.90;;;;;;5052143;28;19927;-63
2022/02/28 13:24:48;;;;;;;;;;;11.70;99.90;;;;;;5052039;28;19924;-62
2022/02/28 13:27:14;;;;;;;;;;;11.60;99.90;;;;;;5051466;28;19921;-61
2022/02/28 13:29:41;;;;;;;;;;;11.60;99.90;;;;;;5051703;28;19921;-61
2022/02/28 13:32:09;;;;;;;;;;;11.60;99.90;;;;;;5052076;28;19920;-61
2022/02/28 13:34:36;;;;;;;;;;;11.60;99.90;;;;;;5051360;28;19921;-61
2022/02/28 13:37:03;;;;;;;;;;;11.50;99.90;;;;;;5050998;28;19931;-60
2022/02/28 13:39:31;;;;;;;;;;;11.60;99.90;;;;;;5051667;28;19920;-63
2022/02/28 13:42:05;;;;;;;;;;;11.50;99.90;;;;;;5051813;28;19924;-61
2022/02/28 13:44:33;;;;;;;;;;;11.40;99.90;;;;;;5051530;28;19921;-60
2022/02/28 13:47:01;;;;;;;;;;;11.50;99.90;;;;;;5051088;28;19944;-61
2022/02/28 13:49:33;;;;;;;;;;;11.50;99.90;;;;;;5051814;28;19982;-62
2022/02/28 13:52:00;;;;;;;;;;;11.60;99.90;;;;;;5050746;28;19921;-62
2022/02/28 13:54:26;;;;;;;;;;;11.60;99.90;;;;;;5051779;28;19928;-60
2022/02/28 13:56:53;;;;;;;;;;;11.70;99.90;;;;;;5051289;28;19925;-59
2022/02/28 13:59:25;;;;;;;;;;;11.70;99.90;;;;;;5051823;28;19921;-62
2022/02/28 14:01:52;;;;;;;;;;;11.80;99.90;;;;;;5050939;28;19929;-62
2022/02/28 14:04:21;;;;;;;;;;;11.90;99.90;;;;;;5051273;28;19921;-61
2022/02/28 14:06:55;;;;;;;;;;;11.90;99.90;;;;;;5051093;28;19944;-61
2022/02/28 14:09:22;;;;;;;;;;;11.90;99.90;;;;;;5051844;28;19928;-62
2022/02/28 14:11:51;;;;;;;;;;;12.00;99.90;;;;;;5051766;28;19921;-58
2022/02/28 14:14:17;;;;;;;;;;;11.90;99.90;;;;;;5051714;28;19924;-60
2022/02/28 14:16:45;;;;;;;;;;;11.80;99.90;;;;;;5050645;28;19924;-60
2022/02/28 14:19:13;;;;;;;;;;;11.50;99.90;;;;;;5050941;28;19921;-61
2022/02/28 14:21:41;;;;;;;;;;;11.60;99.90;;;;;;5051272;28;20007;-61
2022/02/28 14:24:08;;;;;;;;;;;11.60;99.90;;;;;;5051269;28;19929;-59
2022/02/28 14:26:36;;;;;;;;;;;11.60;99.90;;;;;;5054043;28;19925;-62
2022/02/28 14:29:04;;;;;;;;;;;11.60;99.90;;;;;;5055295;28;19974;-60